Edmon, Pennsylvania
Current Conditions -  °F | °C
As of 6:50 PM on Sunday 25 Jan 2015 (Local Time) from KLBE Reporting Station
Light Rain Light Rain  
Wind Chill: 32°   Ceiling: 300
Heat Index: 32°   Visibility: 1.2mi
Dew Point: 32°   Wind: 0mph
Humidity: 100%   Direction: NA
Pressure: 29.81"   Gusts: NA
Location:  40.53°N, 79.49°W
Report Text: KLBE 252350Z 00000KT 1 1/4SM -RA BR OVC003 00/00 A2981
Loading
Personal Weather Stations






























Interactive Weather Map New forecast layout! Learn more

10-Day Weather Forecast

Advertisements
Track Severe Weather on mobile